Ana Sayfa
METAR-TAF:

METAR-TAF

Havaalanları :

Magic Valley Regional Airport (Joslin Field)

Twin Falls, Idaho, Amerika Birleşik Devletleri

Enlem: 42-28-43N, Boylam: 114-28-34W, yükseklik: 1265 m

Güncel hava durumu gözlemi

Rapor saat 14:53 UTC de 53 dakika önce yapıldı.
Rüzgar batı/güneybatıdan 17 kt
Sıcaklık -4°C
Nem 68%
Basınç 1027 hPa
Görüş mesafesi: 16.1 km
Açık gökyüzü

METAR: KTWF 241453Z 25017KT 10SM CLR M04/M09 A3033 RMK AO2 SLP273 T10391089 53009

Saat: 08:46 (15:46 UTC)

Tahmin

Rapor saat 11:20 UTC de 4 saat ve 26 dakika önce yapıldı.
Ayın 24'si saat 12 UTC'den ayın 25'si saat 12 UTC'ye kadar geçerli Tahmin
Rüzgar batı/güneybatıdan 22 kt ve 32 kt'a kadar ani rüzgarlar
Görüş mesafesi: 10 km
Açık gökyüzü
Ayın 25'si saat 0200 UTC'den
Rüzgar güneybatıdan 15 kt
Görüş mesafesi: 10 km
Açık gökyüzü

TAF: KTWF 241120Z 2412/2512 25022G32KT P6SM SKC FM250200 23015KT P6SM SKC

4.000'den fazla havaalanı için hava durumu gözlemleri ve tahminleri (METAR ve TAF raporları).

Kullanılabilir istasyonlar harita üzerinde sarı ve kırmızı noktalarla gösterilir.

İstasyonun adını görmek için fareyi noktanın üzerinde gezdirin.

Sonrasında hava gözlem ve tahminlerini görmek için tıklayın.

Haritayı değiştirmek için: yaklaştırmak için siyah artı işaretli yeşil düğmeye ve uzaklaştırmak için de eksi işaretli düğmeye hızla tıklayın; bitişik haritalar için yeşil okları kullanın.


METAR-TAF: